createdAt,value
2022-11-15T00:10:01.941Z,981.82
2022-11-15T00:25:04.245Z,981.79
2022-11-15T00:40:06.685Z,981.9
2022-11-15T00:55:09.186Z,982.08
2022-11-15T01:10:11.711Z,982.09
2022-11-15T01:25:14.187Z,982.29
2022-11-15T01:40:16.551Z,982.49
2022-11-15T01:55:18.875Z,982.63
2022-11-15T02:10:21.265Z,982.75
2022-11-15T02:25:23.655Z,982.81
2022-11-15T02:40:26.056Z,982.81
2022-11-15T02:55:28.414Z,982.9
2022-11-15T03:10:30.793Z,983.13
2022-11-15T03:25:32.982Z,983.13
2022-11-15T03:40:35.418Z,983.19
2022-11-15T03:55:37.763Z,983.22
2022-11-15T04:10:40.079Z,983.3
2022-11-15T04:25:42.403Z,983.37
2022-11-15T04:40:44.870Z,983.47
2022-11-15T04:55:47.196Z,983.6
2022-11-15T05:10:49.744Z,983.58
2022-11-15T05:25:52.281Z,983.68
2022-11-15T05:40:55.037Z,983.79
2022-11-15T05:55:57.485Z,984.03
2022-11-15T06:10:59.825Z,984.06
2022-11-15T06:26:02.731Z,984.08
2022-11-15T06:41:05.192Z,984.14
2022-11-15T06:56:07.569Z,984.09
2022-11-15T07:11:09.989Z,984.25
2022-11-15T07:26:12.325Z,984.32
2022-11-15T07:41:14.927Z,984.38
2022-11-15T07:56:17.366Z,984.53
2022-11-15T08:11:19.615Z,984.57
2022-11-15T08:26:22.165Z,984.82
2022-11-15T08:41:24.488Z,984.86
2022-11-15T08:56:26.881Z,984.87
2022-11-15T09:11:30.504Z,984.91
2022-11-15T09:26:32.922Z,984.94
2022-11-15T09:41:35.446Z,984.94
2022-11-15T09:56:37.777Z,984.95
2022-11-15T10:11:40.359Z,985.08
2022-11-15T10:26:42.700Z,985.21
2022-11-15T10:41:45.257Z,984.99
2022-11-15T10:56:47.682Z,985.04
2022-11-15T11:11:50.502Z,985.01
2022-11-15T11:26:56.859Z,985.12
2022-11-15T11:41:59.922Z,985.16
2022-11-15T11:57:02.392Z,985.14
2022-11-15T12:12:04.751Z,985.21
2022-11-15T12:27:07.278Z,985.44
2022-11-15T12:42:09.715Z,985.36
2022-11-15T12:57:12.442Z,985.42
2022-11-15T13:12:14.849Z,985.41
2022-11-15T13:27:17.188Z,985.52
2022-11-15T13:42:19.656Z,985.6
2022-11-15T13:57:22.121Z,985.51
2022-11-15T14:12:24.418Z,985.58
2022-11-15T14:27:26.709Z,985.57
2022-11-15T14:42:29.289Z,985.54
2022-11-15T14:57:31.748Z,985.57
2022-11-15T15:12:34.145Z,985.57
2022-11-15T15:27:36.572Z,985.71
2022-11-15T15:42:38.847Z,985.84
2022-11-15T15:57:41.150Z,986.1
2022-11-15T16:12:43.529Z,986.38
2022-11-15T16:27:45.991Z,986.43
2022-11-15T16:42:48.345Z,986.55
2022-11-15T16:57:50.634Z,986.68
2022-11-15T17:12:52.944Z,986.63
2022-11-15T17:27:55.316Z,986.61
2022-11-15T17:42:57.642Z,986.71
2022-11-15T17:57:59.915Z,986.69
2022-11-15T18:13:02.452Z,986.96
2022-11-15T18:28:04.751Z,987
2022-11-15T18:43:07.160Z,987.03
2022-11-15T18:58:09.573Z,986.99
2022-11-15T19:13:11.885Z,986.95
2022-11-15T19:28:14.249Z,986.81
2022-11-15T19:43:16.671Z,986.57
2022-11-15T19:58:19.130Z,986.51
2022-11-15T20:13:21.447Z,986.53
2022-11-15T20:28:23.775Z,986.47
2022-11-15T20:43:26.135Z,986.27
2022-11-15T20:58:28.391Z,986.28
2022-11-15T21:13:30.923Z,986.33
2022-11-15T21:28:33.660Z,986.4
2022-11-15T21:43:36.288Z,986.4
2022-11-15T21:58:38.849Z,986.36
2022-11-15T22:13:41.194Z,986.42
2022-11-15T22:28:44.258Z,986.69
2022-11-15T22:43:46.528Z,986.65
2022-11-15T22:58:48.848Z,986.77
2022-11-15T23:13:51.106Z,986.79
2022-11-15T23:28:53.390Z,986.84
2022-11-15T23:43:55.732Z,987.12
2022-11-15T23:58:58.178Z,987.21
